Time;durP1;ratioP1;P1;durP2;ratioP2;P2;SDS_P1;SDS_P2;PMS_P1;PMS_P2;Temp;Humidity;BMP_temperature;BMP_pressure;BME280_temperature;BME280_humidity;BME280_pressure;Samples;Min_cycle;Max_cycle;Signal;HPM_P1;HPM_P2
2023/12/21 00:00:12;;;;;;;1.88;0.73;;;6.30;99.90;;;;;;4887452;29;20307;-73
2023/12/21 00:02:38;;;;;;;5.72;1.20;;;6.30;99.90;;;;;;4887112;29;20307;-73
2023/12/21 00:05:04;;;;;;;1.20;0.30;;;6.30;99.90;;;;;;4887372;29;20049;-73
2023/12/21 00:07:29;;;;;;;1.77;0.68;;;6.30;99.90;;;;;;4882797;29;20304;-74
2023/12/21 00:09:56;;;;;;;1.95;0.50;;;6.30;99.90;;;;;;4887340;29;20025;-73
2023/12/21 00:12:22;;;;;;;2.75;0.60;;;6.40;99.90;;;;;;4887882;29;20107;-74
2023/12/21 00:14:51;;;;;;;3.15;0.65;;;6.40;99.90;;;;;;4870535;29;20049;-74
2023/12/21 00:17:17;;;;;;;1.88;0.43;;;6.40;99.90;;;;;;4887767;29;20123;-73
2023/12/21 00:19:45;;;;;;;1.52;0.52;;;6.40;99.90;;;;;;4885837;29;20088;-76
2023/12/21 00:22:11;;;;;;;1.02;0.30;;;6.40;99.90;;;;;;4888297;29;20045;-74
2023/12/21 00:24:40;;;;;;;2.03;0.40;;;6.40;99.90;;;;;;4881366;29;20533;-74
2023/12/21 00:27:08;;;;;;;1.88;0.50;;;6.30;99.90;;;;;;4872699;29;20025;-73
2023/12/21 00:29:34;;;;;;;2.60;0.40;;;6.30;99.90;;;;;;4871926;29;20096;-72
2023/12/21 00:32:00;;;;;;;2.70;0.30;;;6.30;99.90;;;;;;4872502;29;20036;-75
2023/12/21 00:34:25;;;;;;;0.73;0.20;;;6.30;99.90;;;;;;4872753;29;20140;-75
2023/12/21 00:36:51;;;;;;;0.80;0.25;;;6.30;99.90;;;;;;4872163;29;20295;-77
2023/12/21 00:39:17;;;;;;;1.10;0.30;;;6.30;99.90;;;;;;4858002;29;20017;-74
2023/12/21 00:41:43;;;;;;;0.70;0.30;;;6.30;99.90;;;;;;4873408;29;20037;-76
2023/12/21 00:44:08;;;;;;;0.57;0.20;;;6.30;99.90;;;;;;4872191;29;20053;-74
2023/12/21 00:46:34;;;;;;;2.13;0.20;;;6.30;99.90;;;;;;4871875;29;20029;-75
2023/12/21 00:48:59;;;;;;;0.52;0.20;;;6.30;99.90;;;;;;4871199;29;20033;-75
2023/12/21 00:51:25;;;;;;;1.02;0.20;;;6.30;99.90;;;;;;4890609;29;20064;-75
2023/12/21 00:53:51;;;;;;;1.17;0.20;;;6.20;99.90;;;;;;4890587;29;20032;-72
2023/12/21 00:56:16;;;;;;;0.85;0.30;;;6.30;99.90;;;;;;4872719;29;20081;-73
2023/12/21 00:58:42;;;;;;;0.95;0.30;;;6.30;99.90;;;;;;4871628;29;20064;-74
2023/12/21 01:01:08;;;;;;;0.85;0.20;;;6.30;99.90;;;;;;4871908;29;20026;-75
2023/12/21 01:03:33;;;;;;;2.60;0.30;;;6.30;99.90;;;;;;4871408;29;20086;-76
2023/12/21 01:05:59;;;;;;;0.63;0.20;;;6.30;99.90;;;;;;4871914;29;20228;-75
2023/12/21 01:08:24;;;;;;;1.05;0.20;;;6.30;99.90;;;;;;4872025;29;20022;-73
2023/12/21 01:10:50;;;;;;;0.73;0.30;;;6.30;99.90;;;;;;4871725;29;20201;-73
2023/12/21 01:13:16;;;;;;;0.88;0.20;;;6.30;99.90;;;;;;4875446;29;20311;-74
2023/12/21 01:15:41;;;;;;;0.90;0.20;;;6.30;99.90;;;;;;4871106;29;20053;-74
2023/12/21 01:18:07;;;;;;;1.30;0.20;;;6.30;99.90;;;;;;4871979;29;20079;-73
2023/12/21 01:20:33;;;;;;;0.85;0.25;;;6.40;99.90;;;;;;4870428;29;20037;-75
2023/12/21 01:22:59;;;;;;;0.88;0.30;;;6.40;99.90;;;;;;4871951;29;20058;-75
2023/12/21 01:25:24;;;;;;;1.50;0.40;;;6.40;99.90;;;;;;4870678;29;20052;-74
2023/12/21 01:27:50;;;;;;;0.63;0.20;;;6.40;99.90;;;;;;4870008;29;20231;-76
2023/12/21 01:30:16;;;;;;;1.15;0.30;;;6.40;99.90;;;;;;4874077;29;20041;-74
2023/12/21 01:32:42;;;;;;;1.95;0.10;;;6.50;99.90;;;;;;4870780;29;20068;-73
2023/12/21 01:35:08;;;;;;;0.50;0.20;;;6.40;99.90;;;;;;4869515;29;20030;-76
2023/12/21 01:37:34;;;;;;;0.73;0.30;;;6.50;99.90;;;;;;4870683;29;20200;-77
2023/12/21 01:39:59;;;;;;;2.78;0.30;;;6.50;99.90;;;;;;4871526;29;20033;-74
2023/12/21 01:42:25;;;;;;;0.85;0.20;;;6.50;99.90;;;;;;4871459;29;20304;-75
2023/12/21 01:44:50;;;;;;;0.65;0.30;;;6.50;99.90;;;;;;4870918;29;20037;-75
2023/12/21 01:47:17;;;;;;;1.45;0.30;;;6.50;99.90;;;;;;4877812;29;20025;-74
2023/12/21 01:49:43;;;;;;;0.30;0.20;;;6.50;99.90;;;;;;4889161;29;20092;-74
2023/12/21 01:52:09;;;;;;;0.35;0.15;;;6.50;99.90;;;;;;4890024;29;20048;-74
2023/12/21 01:54:36;;;;;;;0.90;0.10;;;6.60;99.90;;;;;;4889154;29;20072;-75
2023/12/21 01:57:02;;;;;;;0.30;0.10;;;6.60;99.90;;;;;;4889982;29;20040;-73
2023/12/21 01:59:29;;;;;;;0.45;0.20;;;6.50;99.90;;;;;;4889856;29;20029;-75
2023/12/21 02:01:58;;;;;;;1.10;0.22;;;6.60;99.90;;;;;;4889322;29;20104;-74
2023/12/21 02:04:26;;;;;;;0.15;0.10;;;6.60;99.90;;;;;;4889253;29;20051;-74
2023/12/21 02:06:52;;;;;;;0.43;0.20;;;6.60;99.90;;;;;;4884359;29;20271;-75
2023/12/21 02:09:21;;;;;;;0.82;0.20;;;6.60;99.90;;;;;;4889372;29;20044;-75
2023/12/21 02:11:50;;;;;;;0.35;0.35;;;6.60;99.90;;;;;;4888775;29;20048;-76
2023/12/21 02:14:15;;;;;;;1.25;0.10;;;6.60;99.90;;;;;;4889588;29;20096;-76
2023/12/21 02:16:59;;;;;;;0.52;0.10;;;6.60;99.90;;;;;;4888982;29;20319;-76
2023/12/21 02:19:28;;;;;;;0.25;0.10;;;6.60;99.90;;;;;;4889414;29;20041;-73
2023/12/21 02:21:59;;;;;;;2.28;0.20;;;6.70;99.90;;;;;;4889114;29;20272;-75
2023/12/21 02:24:27;;;;;;;0.65;0.20;;;6.70;99.90;;;;;;4884297;29;20045;-74
2023/12/21 02:26:53;;;;;;;0.43;0.20;;;6.70;99.90;;;;;;4870448;29;20041;-75
2023/12/21 02:29:19;;;;;;;0.63;0.10;;;6.80;99.90;;;;;;4870827;29;20044;-75
2023/12/21 02:31:44;;;;;;;1.10;0.20;;;6.80;99.90;;;;;;4870442;29;20101;-75
2023/12/21 02:34:10;;;;;;;0.65;0.20;;;6.70;99.90;;;;;;4870765;29;20029;-74
2023/12/21 02:36:36;;;;;;;0.45;0.05;;;6.80;99.90;;;;;;4869615;29;20028;-74
2023/12/21 02:39:01;;;;;;;0.60;0.10;;;6.80;99.90;;;;;;4870173;29;20036;-73
2023/12/21 02:41:27;;;;;;;0.10;0.10;;;6.80;99.90;;;;;;4878508;29;20013;-75
2023/12/21 02:43:53;;;;;;;0.47;0.10;;;6.90;99.90;;;;;;4888096;29;20049;-75
2023/12/21 02:46:24;;;;;;;0.22;0.10;;;6.90;99.90;;;;;;4889135;29;20264;-75
2023/12/21 02:48:51;;;;;;;0.20;0.00;;;6.90;99.90;;;;;;4888774;29;20055;-75
2023/12/21 02:51:17;;;;;;;0.63;0.20;;;6.90;99.90;;;;;;4889005;29;20053;-75
2023/12/21 02:53:43;;;;;;;1.40;0.10;;;6.90;99.90;;;;;;4872005;29;20052;-74
2023/12/21 02:56:08;;;;;;;0.30;0.10;;;7.00;99.90;;;;;;4870783;29;20097;-75
2023/12/21 02:58:35;;;;;;;0.25;0.10;;;7.00;99.90;;;;;;4871265;29;20181;-74
2023/12/21 03:01:01;;;;;;;0.40;0.10;;;7.00;99.90;;;;;;4870354;29;20033;-74
2023/12/21 03:03:27;;;;;;;0.20;0.08;;;7.00;99.90;;;;;;4870040;29;20367;-75
2023/12/21 03:05:53;;;;;;;0.22;0.00;;;7.00;99.90;;;;;;4869417;29;20268;-74
2023/12/21 03:08:19;;;;;;;0.17;0.08;;;7.00;99.90;;;;;;4869703;29;20272;-73
2023/12/21 03:10:45;;;;;;;1.00;0.10;;;7.00;99.90;;;;;;4869371;29;20014;-75
2023/12/21 03:13:11;;;;;;;0.17;0.08;;;7.00;99.90;;;;;;4869926;29;20432;-77
2023/12/21 03:15:37;;;;;;;0.10;0.10;;;7.00;99.90;;;;;;4882812;29;20307;-74
2023/12/21 03:18:06;;;;;;;0.75;0.10;;;7.00;99.90;;;;;;4888402;29;20268;-75
2023/12/21 03:20:35;;;;;;;0.75;0.10;;;7.00;99.90;;;;;;4887958;29;20032;-73
2023/12/21 03:23:01;;;;;;;0.68;0.10;;;7.10;99.90;;;;;;4888231;29;20096;-75
2023/12/21 03:25:27;;;;;;;0.15;0.08;;;7.10;99.90;;;;;;4888340;29;20271;-73
2023/12/21 03:27:55;;;;;;;;;;;7.10;99.90;;;;;;4887535;29;20033;-74
2023/12/21 03:30:22;;;;;;;0.10;0.00;;;7.00;99.90;;;;;;4885326;29;19955;-75
2023/12/21 03:32:48;;;;;;;0.38;0.10;;;7.00;99.90;;;;;;4869146;29;20322;-75
2023/12/21 03:35:13;;;;;;;0.30;0.10;;;7.00;99.90;;;;;;4869485;29;20041;-74
2023/12/21 03:37:39;;;;;;;0.98;0.15;;;7.00;99.90;;;;;;4869179;29;20113;-73
2023/12/21 03:40:06;;;;;;;0.38;0.10;;;7.00;99.90;;;;;;4869427;29;20028;-74
2023/12/21 03:42:32;;;;;;;0.65;0.10;;;7.00;99.90;;;;;;4869109;29;20048;-75
2023/12/21 03:44:58;;;;;;;0.20;0.05;;;7.00;99.90;;;;;;4868567;29;20061;-74
2023/12/21 03:47:23;;;;;;;0.45;0.10;;;7.00;99.90;;;;;;4874065;29;20021;-75
2023/12/21 03:49:49;;;;;;;0.32;0.00;;;7.00;99.90;;;;;;4886785;29;20033;-74
2023/12/21 03:52:15;;;;;;;0.05;0.00;;;7.00;99.90;;;;;;4883375;29;20037;-75
2023/12/21 03:54:40;;;;;;;0.28;0.20;;;7.10;99.90;;;;;;4887495;29;20100;-74
2023/12/21 03:57:07;;;;;;;0.10;0.10;;;7.10;99.90;;;;;;4887722;29;20113;-76
2023/12/21 03:59:34;;;;;;;0.28;0.10;;;7.10;99.90;;;;;;4871168;29;20375;-74
2023/12/21 04:02:01;;;;;;;1.30;0.10;;;7.10;99.90;;;;;;4887989;29;20028;-73
2023/12/21 04:04:27;;;;;;;0.10;0.00;;;7.10;99.90;;;;;;4887605;29;20123;-74
2023/12/21 04:06:53;;;;;;;0.25;0.00;;;7.10;99.90;;;;;;4885563;29;20047;-74
2023/12/21 04:09:18;;;;;;;0.17;0.03;;;7.10;99.90;;;;;;4869062;29;20026;-74
2023/12/21 04:11:44;;;;;;;0.20;0.05;;;7.20;99.90;;;;;;4868360;29;20052;-74
2023/12/21 04:14:09;;;;;;;0.22;0.10;;;7.10;99.90;;;;;;4868962;29;20045;-74
2023/12/21 04:16:35;;;;;;;0.00;0.00;;;7.20;99.90;;;;;;4851646;29;20053;-74
2023/12/21 04:19:03;;;;;;;0.13;0.10;;;7.10;99.90;;;;;;4869015;29;20219;-74
2023/12/21 04:21:30;;;;;;;0.80;0.10;;;7.00;99.90;;;;;;4868502;29;20096;-73
2023/12/21 04:23:55;;;;;;;0.30;0.08;;;6.90;99.90;;;;;;4866902;29;20029;-73
2023/12/21 04:26:22;;;;;;;0.28;0.10;;;6.90;99.90;;;;;;4868967;29;20197;-74
2023/12/21 04:28:51;;;;;;;0.20;0.10;;;6.80;99.90;;;;;;4868946;29;20045;-74
2023/12/21 04:31:20;;;;;;;0.47;0.10;;;6.80;99.90;;;;;;4869716;29;20032;-74
2023/12/21 04:33:49;;;;;;;0.52;0.52;;;6.80;99.90;;;;;;4870965;29;20037;-73
2023/12/21 04:36:15;;;;;;;0.82;0.10;;;6.80;99.90;;;;;;4870683;29;20049;-76
2023/12/21 04:38:40;;;;;;;0.52;0.00;;;6.80;99.90;;;;;;4871085;29;20026;-72
2023/12/21 04:41:06;;;;;;;0.32;0.10;;;6.80;99.90;;;;;;4866358;29;20036;-74
2023/12/21 04:43:32;;;;;;;0.60;0.22;;;6.80;99.90;;;;;;4869419;29;20062;-74
2023/12/21 04:45:57;;;;;;;1.27;0.43;;;6.80;99.90;;;;;;4868446;29;20135;-74
2023/12/21 04:48:23;;;;;;;2.13;0.75;;;6.80;99.90;;;;;;4868545;29;20030;-75
2023/12/21 04:50:49;;;;;;;0.98;0.30;;;6.80;99.90;;;;;;4868002;29;20092;-75
2023/12/21 04:53:14;;;;;;;0.63;0.20;;;6.80;99.90;;;;;;4852326;29;20112;-75
2023/12/21 04:55:43;;;;;;;0.57;0.20;;;6.80;99.90;;;;;;4863516;29;20038;-73
2023/12/21 04:58:11;;;;;;;0.30;0.10;;;6.90;99.90;;;;;;4868385;29;20038;-76
2023/12/21 05:00:40;;;;;;;;;;;6.90;99.90;;;;;;4868892;29;20053;-77
2023/12/21 05:03:06;;;;;;;0.38;0.10;;;6.90;99.90;;;;;;4867621;29;19919;-76
2023/12/21 05:05:31;;;;;;;0.30;0.10;;;6.80;99.90;;;;;;4868492;29;20224;-76
2023/12/21 05:07:57;;;;;;;0.40;0.10;;;6.90;99.90;;;;;;4868470;29;20371;-74
2023/12/21 05:10:23;;;;;;;0.10;0.10;;;6.90;99.90;;;;;;4871138;29;20304;-75
2023/12/21 05:12:49;;;;;;;0.13;0.10;;;6.90;99.90;;;;;;4871478;29;20037;-74
2023/12/21 05:15:15;;;;;;;0.20;0.10;;;7.00;99.90;;;;;;4867499;29;20025;-76
2023/12/21 05:17:40;;;;;;;0.52;0.10;;;7.00;99.90;;;;;;4871458;29;20064;-76
2023/12/21 05:20:07;;;;;;;0.20;0.10;;;7.00;99.90;;;;;;4871616;29;20188;-74
2023/12/21 05:22:33;;;;;;;0.50;0.20;;;7.10;99.90;;;;;;4854910;29;20074;-74
2023/12/21 05:24:59;;;;;;;0.93;0.17;;;7.10;99.90;;;;;;4871154;29;20116;-74
2023/12/21 05:27:25;;;;;;;0.20;0.10;;;7.00;99.90;;;;;;4871457;29;20037;-75
2023/12/21 05:29:51;;;;;;;0.47;0.10;;;7.00;99.90;;;;;;4871432;29;20019;-76
2023/12/21 05:32:17;;;;;;;0.17;0.10;;;7.00;99.90;;;;;;4888154;29;20037;-75
2023/12/21 05:34:42;;;;;;;0.52;0.10;;;6.90;99.90;;;;;;4889773;29;20037;-75
2023/12/21 05:37:08;;;;;;;0.35;0.10;;;6.90;99.90;;;;;;4890373;29;20215;-76
2023/12/21 05:39:35;;;;;;;0.10;0.00;;;7.00;99.90;;;;;;4890249;29;20216;-74
2023/12/21 05:42:01;;;;;;;2.25;0.20;;;7.00;99.90;;;;;;4889817;29;20051;-75
2023/12/21 05:44:26;;;;;;;0.20;0.10;;;7.00;99.90;;;;;;4889792;29;20080;-75
2023/12/21 05:46:52;;;;;;;0.38;0.10;;;7.10;99.90;;;;;;4889290;29;20037;-75
2023/12/21 05:49:18;;;;;;;0.32;0.10;;;7.10;99.90;;;;;;4881029;29;20332;-76
2023/12/21 05:51:43;;;;;;;0.80;0.10;;;7.10;99.90;;;;;;4889565;29;20021;-76
2023/12/21 05:54:09;;;;;;;0.98;0.05;;;7.10;99.90;;;;;;4889914;29;20116;-78
2023/12/21 05:56:36;;;;;;;0.65;0.10;;;7.20;99.90;;;;;;4889159;29;20108;-78
2023/12/21 05:59:02;;;;;;;0.32;0.10;;;7.20;99.90;;;;;;4889748;29;20049;-75
2023/12/21 06:01:27;;;;;;;0.43;0.10;;;7.20;99.90;;;;;;4889568;29;20033;-77
2023/12/21 06:03:53;;;;;;;0.10;0.10;;;7.30;99.90;;;;;;4889370;29;20105;-75
2023/12/21 06:06:19;;;;;;;0.20;0.10;;;7.20;99.90;;;;;;4881091;29;20034;-76
2023/12/21 06:08:45;;;;;;;0.25;0.10;;;7.20;99.90;;;;;;4871243;29;20040;-76
2023/12/21 06:11:28;;;;;;;1.27;0.00;;;7.20;99.90;;;;;;4869666;29;20217;-76
2023/12/21 06:13:53;;;;;;;1.27;0.33;;;7.30;99.90;;;;;;4870703;29;20045;-74
2023/12/21 06:16:19;;;;;;;0.38;0.10;;;7.30;99.90;;;;;;4869484;29;20308;-76
2023/12/21 06:18:46;;;;;;;0.35;0.10;;;7.30;99.90;;;;;;4854244;29;20382;-74
2023/12/21 06:21:11;;;;;;;0.50;0.10;;;7.30;99.90;;;;;;4872042;29;20041;-76
2023/12/21 06:23:37;;;;;;;0.52;0.10;;;7.30;99.90;;;;;;4888821;29;20081;-76
2023/12/21 06:26:02;;;;;;;0.15;0.00;;;7.30;99.90;;;;;;4889079;29;20028;-76
2023/12/21 06:28:31;;;;;;;0.17;0.10;;;7.30;99.90;;;;;;4888747;29;20104;-75
2023/12/21 06:30:56;;;;;;;;;;;7.30;99.90;;;;;;4889243;29;20082;-76
2023/12/21 06:33:22;;;;;;;0.40;0.20;;;7.30;99.90;;;;;;4888970;29;19904;-75
2023/12/21 06:35:48;;;;;;;0.03;0.00;;;7.30;99.90;;;;;;4888202;29;20041;-74
2023/12/21 06:38:14;;;;;;;0.20;0.10;;;7.30;99.90;;;;;;4889245;29;20033;-73
2023/12/21 06:40:40;;;;;;;0.35;0.10;;;7.30;99.90;;;;;;4874280;29;20212;-72
2023/12/21 06:43:06;;;;;;;0.28;0.10;;;7.30;99.90;;;;;;4870052;29;20109;-75
2023/12/21 06:45:34;;;;;;;0.47;0.10;;;7.30;99.90;;;;;;4870108;29;20042;-73
2023/12/21 06:48:00;;;;;;;;;;;7.30;99.90;;;;;;4870472;29;20070;-74
2023/12/21 06:50:25;;;;;;;0.60;0.10;;;7.40;99.90;;;;;;4880845;29;19907;-75
2023/12/21 06:52:51;;;;;;;2.20;0.20;;;7.40;99.90;;;;;;4887862;29;20045;-72
2023/12/21 06:55:21;;;;;;;0.68;0.10;;;7.40;99.90;;;;;;4889098;29;20036;-75
2023/12/21 06:57:46;;;;;;;0.30;0.10;;;7.30;99.90;;;;;;4884254;29;20037;-75
2023/12/21 07:00:12;;;;;;;0.28;0.10;;;7.40;99.90;;;;;;4888458;29;20334;-73
2023/12/21 07:02:41;;;;;;;0.40;0.10;;;7.40;99.90;;;;;;4871456;29;20035;-75
2023/12/21 07:05:09;;;;;;;0.45;0.10;;;7.40;99.90;;;;;;4888163;29;20096;-76
2023/12/21 07:07:35;;;;;;;0.38;0.10;;;7.50;99.90;;;;;;4871640;29;20048;-75
2023/12/21 07:10:01;;;;;;;0.47;0.20;;;7.50;99.90;;;;;;4888361;29;20031;-76
2023/12/21 07:12:27;;;;;;;0.63;0.20;;;7.50;99.90;;;;;;4888673;29;20028;-75
2023/12/21 07:14:54;;;;;;;0.40;0.10;;;7.50;99.90;;;;;;4881892;29;20092;-77
2023/12/21 07:17:19;;;;;;;0.63;0.10;;;7.60;99.90;;;;;;4869751;29;20069;-74
2023/12/21 07:19:51;;;;;;;1.10;0.20;;;7.60;99.90;;;;;;4869476;29;20029;-78
2023/12/21 07:22:17;;;;;;;0.88;0.10;;;7.70;99.90;;;;;;4869515;29;20041;-74
2023/12/21 07:24:42;;;;;;;0.75;0.30;;;7.70;99.90;;;;;;4869110;29;20117;-74
2023/12/21 07:27:08;;;;;;;1.33;0.20;;;7.70;99.90;;;;;;4869312;29;20097;-73
2023/12/21 07:29:34;;;;;;;0.13;0.05;;;7.70;99.90;;;;;;4869647;29;20037;-75
2023/12/21 07:31:59;;;;;;;0.55;0.20;;;7.80;99.90;;;;;;4869138;29;20104;-72
2023/12/21 07:34:25;;;;;;;0.47;0.15;;;7.80;99.90;;;;;;4884780;29;20230;-74
2023/12/21 07:36:50;;;;;;;0.40;0.10;;;7.80;99.90;;;;;;4887628;29;20037;-75
2023/12/21 07:39:16;;;;;;;1.35;0.40;;;7.80;99.90;;;;;;4887701;29;20032;-76
2023/12/21 07:41:42;;;;;;;0.82;0.38;;;7.80;99.90;;;;;;4887217;29;20040;-75
2023/12/21 07:44:08;;;;;;;1.67;0.70;;;7.80;99.90;;;;;;4887641;29;20041;-75
2023/12/21 07:46:33;;;;;;;1.10;0.38;;;7.80;99.90;;;;;;4888149;29;20057;-76
2023/12/21 07:48:59;;;;;;;2.10;0.70;;;7.80;99.90;;;;;;4886957;29;20204;-74
2023/12/21 07:51:25;;;;;;;0.60;0.20;;;7.80;99.90;;;;;;4873647;29;20049;-73
2023/12/21 07:53:50;;;;;;;1.95;0.30;;;7.80;99.90;;;;;;4852580;29;20303;-73
2023/12/21 07:56:16;;;;;;;1.38;0.20;;;7.80;99.90;;;;;;4869558;29;20026;-76
2023/12/21 07:58:42;;;;;;;1.80;0.65;;;7.80;99.90;;;;;;4868622;29;20033;-76
2023/12/21 08:01:07;;;;;;;0.55;0.10;;;7.80;99.90;;;;;;4869169;29;20330;-76
2023/12/21 08:03:33;;;;;;;2.20;0.98;;;7.80;99.90;;;;;;4868985;29;20089;-76
2023/12/21 08:05:59;;;;;;;1.00;0.17;;;7.80;99.90;;;;;;4868690;29;20052;-75
2023/12/21 08:08:24;;;;;;;0.50;0.20;;;7.80;99.90;;;;;;4855853;29;20029;-74
2023/12/21 08:10:50;;;;;;;2.33;1.20;;;7.80;99.90;;;;;;4868402;29;20104;-75
2023/12/21 08:13:16;;;;;;;0.70;0.40;;;7.80;99.90;;;;;;4868645;29;20042;-75
2023/12/21 08:15:42;;;;;;;1.08;0.20;;;7.90;99.90;;;;;;4867717;29;20936;-75
2023/12/21 08:18:09;;;;;;;0.85;0.20;;;7.90;99.90;;;;;;4867825;29;20104;-74
2023/12/21 08:20:36;;;;;;;1.08;0.17;;;7.90;99.90;;;;;;4868839;29;20033;-74
2023/12/21 08:23:03;;;;;;;1.73;0.43;;;7.90;99.90;;;;;;4868836;29;20029;-75
2023/12/21 08:25:32;;;;;;;1.38;0.13;;;8.00;99.90;;;;;;4869326;29;20052;-75
2023/12/21 08:27:58;;;;;;;0.22;0.10;;;8.00;99.90;;;;;;4883925;29;20100;-75
2023/12/21 08:30:23;;;;;;;0.43;0.10;;;8.00;99.90;;;;;;4887413;29;20032;-75
2023/12/21 08:32:49;;;;;;;0.55;0.13;;;8.00;99.90;;;;;;4887250;29;20044;-75
2023/12/21 08:35:16;;;;;;;1.35;0.40;;;8.00;99.90;;;;;;4887718;29;20036;-76
2023/12/21 08:37:43;;;;;;;0.77;0.10;;;8.10;99.90;;;;;;4886723;29;20107;-75
2023/12/21 08:40:10;;;;;;;0.73;0.10;;;8.10;99.90;;;;;;4886983;29;20048;-76
2023/12/21 08:42:36;;;;;;;0.88;0.20;;;8.10;99.90;;;;;;4870132;29;20044;-75
2023/12/21 08:45:05;;;;;;;0.35;0.10;;;8.10;99.90;;;;;;4877681;29;20243;-74
2023/12/21 08:47:38;;;;;;;1.23;0.43;;;8.10;99.90;;;;;;4872344;29;20281;-72
2023/12/21 08:50:29;;;;;;;0.60;0.10;;;8.10;99.90;;;;;;4882751;29;20093;-74
2023/12/21 08:53:00;;;;;;;0.32;0.10;;;8.10;99.90;;;;;;4890552;29;20276;-73
2023/12/21 08:55:29;;;;;;;0.25;0.10;;;8.10;99.90;;;;;;4890974;29;20045;-72
2023/12/21 08:57:58;;;;;;;0.80;0.20;;;8.10;99.90;;;;;;4890402;29;20096;-74
2023/12/21 09:00:30;;;;;;;0.63;0.17;;;8.10;99.90;;;;;;4885254;29;20204;-73
2023/12/21 09:02:56;;;;;;;1.58;0.10;;;8.10;99.90;;;;;;4871473;29;20135;-74
2023/12/21 09:05:23;;;;;;;0.52;0.10;;;8.20;99.90;;;;;;4887249;29;20048;-73
2023/12/21 09:07:49;;;;;;;0.98;0.20;;;8.20;99.90;;;;;;4884905;29;20093;-74
2023/12/21 09:10:14;;;;;;;1.52;0.15;;;8.20;99.90;;;;;;4873976;29;20260;-75
2023/12/21 09:12:47;;;;;;;1.63;0.20;;;8.20;99.90;;;;;;4889303;29;20041;-74
2023/12/21 09:15:13;;;;;;;0.57;0.10;;;8.10;99.90;;;;;;4887335;29;20103;-74
2023/12/21 09:17:41;;;;;;;0.82;0.10;;;8.10;99.90;;;;;;4874989;29;20276;-73
2023/12/21 09:20:13;;;;;;;0.82;0.10;;;8.10;99.90;;;;;;4873556;29;20108;-74
2023/12/21 09:22:42;;;;;;;0.20;0.10;;;8.10;99.90;;;;;;4891253;29;20041;-73
2023/12/21 09:25:10;;;;;;;1.05;0.10;;;8.20;99.90;;;;;;4896599;29;20057;-71
2023/12/21 09:27:36;;;;;;;0.35;0.30;;;8.20;99.90;;;;;;4896308;29;20052;-72
2023/12/21 09:30:05;;;;;;;0.50;0.10;;;8.20;99.90;;;;;;4894488;29;20029;-72
2023/12/21 09:32:34;;;;;;;0.25;0.10;;;8.30;99.90;;;;;;4890309;29;20176;-73
2023/12/21 09:34:59;;;;;;;0.35;0.10;;;8.30;99.90;;;;;;4889797;29;20043;-74
2023/12/21 09:37:28;;;;;;;0.45;0.20;;;8.40;99.90;;;;;;4889914;29;20096;-74
2023/12/21 09:39:58;;;;;;;0.88;0.10;;;8.40;99.90;;;;;;4872832;29;20229;-73
2023/12/21 09:42:26;;;;;;;1.42;0.10;;;8.40;99.90;;;;;;4890008;29;20107;-72
2023/12/21 09:45:04;;;;;;;0.88;0.10;;;8.50;99.90;;;;;;4889119;29;20065;-72
2023/12/21 09:47:38;;;;;;;0.15;0.10;;;8.50;99.90;;;;;;4889683;29;20049;-72
2023/12/21 09:50:08;;;;;;;0.70;0.30;;;8.50;99.90;;;;;;4889595;29;20045;-72
2023/12/21 09:52:37;;;;;;;0.30;0.10;;;8.60;99.90;;;;;;4870361;29;20040;-73
2023/12/21 09:55:05;;;;;;;0.38;0.10;;;8.60;99.90;;;;;;4880732;29;20043;-73
2023/12/21 09:57:33;;;;;;;;;;;8.60;99.90;;;;;;4890329;29;20309;-73
2023/12/21 09:59:59;;;;;;;0.40;0.10;;;8.70;99.90;;;;;;4888992;29;19907;-73
2023/12/21 10:02:27;;;;;;;1.25;0.55;;;8.80;99.90;;;;;;4889445;29;20041;-73
2023/12/21 10:04:53;;;;;;;;;;;8.80;99.90;;;;;;4889396;29;20556;-73
2023/12/21 10:07:20;;;;;;;0.40;0.00;;;8.80;99.90;;;;;;4889663;29;19907;-72
2023/12/21 10:09:45;;;;;;;0.55;0.05;;;8.80;99.90;;;;;;4888848;29;20092;-73
2023/12/21 10:12:11;;;;;;;1.05;0.10;;;8.90;99.90;;;;;;4889459;29;20032;-73
2023/12/21 10:14:37;;;;;;;0.65;0.10;;;8.90;99.90;;;;;;4889161;29;20096;-74
2023/12/21 10:17:09;;;;;;;0.70;0.17;;;8.90;99.90;;;;;;4889087;29;20060;-73
2023/12/21 10:19:36;;;;;;;0.93;0.15;;;8.80;99.90;;;;;;4888919;29;20088;-73
2023/12/21 10:22:01;;;;;;;0.38;0.10;;;8.90;99.90;;;;;;4888432;29;20037;-72
2023/12/21 10:24:27;;;;;;;0.25;0.10;;;8.90;99.90;;;;;;4887796;29;20116;-71
2023/12/21 10:26:53;;;;;;;0.80;0.10;;;9.00;99.90;;;;;;4885094;29;20029;-75
2023/12/21 10:29:20;;;;;;;0.40;0.10;;;9.00;99.90;;;;;;4888886;29;20327;-72
2023/12/21 10:31:47;;;;;;;2.05;0.10;;;9.00;99.90;;;;;;4871555;29;20338;-73
2023/12/21 10:34:17;;;;;;;1.05;0.20;;;9.00;99.90;;;;;;4889183;29;20137;-73
2023/12/21 10:36:44;;;;;;;1.67;0.20;;;9.00;99.90;;;;;;4888291;29;20045;-73
2023/12/21 10:39:15;;;;;;;0.68;0.10;;;9.10;99.90;;;;;;4888867;29;20275;-74
2023/12/21 10:41:44;;;;;;;0.32;0.10;;;9.10;99.90;;;;;;4882437;29;20013;-72
2023/12/21 10:44:15;;;;;;;0.95;0.20;;;9.10;99.90;;;;;;4884829;29;20044;-73
2023/12/21 10:46:41;;;;;;;0.30;0.10;;;9.10;99.90;;;;;;4888226;29;20041;-72
2023/12/21 10:49:11;;;;;;;1.20;0.08;;;9.10;99.90;;;;;;4872038;29;20025;-73
2023/12/21 10:51:37;;;;;;;0.40;0.05;;;9.20;99.90;;;;;;4888577;29;20052;-72
2023/12/21 10:54:08;;;;;;;0.77;0.10;;;9.20;99.90;;;;;;4887946;29;20052;-73
2023/12/21 10:56:36;;;;;;;0.55;0.10;;;9.20;99.90;;;;;;4888083;29;20044;-74
2023/12/21 10:59:03;;;;;;;1.00;0.10;;;9.20;99.90;;;;;;4882915;29;20040;-73
2023/12/21 11:01:30;;;;;;;0.32;0.10;;;9.20;99.90;;;;;;4871035;29;20272;-72
2023/12/21 11:03:59;;;;;;;0.10;0.10;;;9.10;99.90;;;;;;4870949;29;20032;-72
2023/12/21 11:06:26;;;;;;;0.55;0.10;;;9.30;99.90;;;;;;4888368;29;20063;-71
2023/12/21 11:08:53;;;;;;;0.30;0.10;;;9.30;99.90;;;;;;4887677;29;20041;-72
2023/12/21 11:11:22;;;;;;;0.32;0.10;;;9.20;99.90;;;;;;4887746;29;20429;-73
2023/12/21 11:13:57;;;;;;;1.92;0.10;;;9.30;99.90;;;;;;4887496;29;20044;-73
2023/12/21 11:16:28;;;;;;;1.13;0.10;;;9.30;99.90;;;;;;4880988;29;20056;-75
2023/12/21 11:18:57;;;;;;;0.38;0.10;;;9.30;99.90;;;;;;4869030;29;20221;-72
2023/12/21 11:21:28;;;;;;;0.47;0.10;;;9.20;99.90;;;;;;4870013;29;20036;-73
2023/12/21 11:23:56;;;;;;;2.83;0.20;;;9.30;99.90;;;;;;4869487;29;20045;-77
2023/12/21 11:26:27;;;;;;;0.50;0.10;;;9.30;99.90;;;;;;4878767;29;20040;-76
2023/12/21 11:29:13;;;;;;;0.45;0.10;;;9.40;99.90;;;;;;4888072;29;20069;-75
2023/12/21 11:31:41;;;;;;;0.25;0.10;;;9.30;99.90;;;;;;4887833;29;20097;-74
2023/12/21 11:34:15;;;;;;;1.85;0.10;;;9.40;99.90;;;;;;4854658;29;20370;-74
2023/12/21 11:36:41;;;;;;;0.60;0.10;;;9.40;99.90;;;;;;4887304;29;20056;-73
2023/12/21 11:39:16;;;;;;;0.40;0.10;;;9.30;99.90;;;;;;4871975;29;20100;-74
2023/12/21 11:41:59;;;;;;;0.57;0.10;;;9.30;99.90;;;;;;4871231;29;20077;-74
2023/12/21 11:44:36;;;;;;;0.32;0.15;;;9.40;99.90;;;;;;4888421;29;20044;-74
2023/12/21 11:47:04;;;;;;;0.40;0.10;;;9.30;99.90;;;;;;4887723;29;20053;-73
2023/12/21 11:49:30;;;;;;;0.60;0.10;;;9.40;99.90;;;;;;4888510;29;20041;-73
2023/12/21 11:51:56;;;;;;;0.15;0.00;;;9.40;99.90;;;;;;4883352;29;20311;-74
2023/12/21 11:54:23;;;;;;;0.38;0.20;;;9.40;99.90;;;;;;4888345;29;20047;-74
2023/12/21 11:56:55;;;;;;;0.68;0.20;;;9.40;99.90;;;;;;4887610;29;20041;-73
2023/12/21 11:59:27;;;;;;;0.40;0.10;;;9.40;99.90;;;;;;4888617;29;20025;-73
2023/12/21 12:01:52;;;;;;;0.73;0.10;;;9.40;99.90;;;;;;4887781;29;20040;-73
2023/12/21 12:04:18;;;;;;;0.80;0.20;;;9.30;99.90;;;;;;4868462;29;20036;-74
2023/12/21 12:06:46;;;;;;;0.45;0.10;;;9.40;99.90;;;;;;4869434;29;20036;-72
2023/12/21 12:09:12;;;;;;;0.38;0.10;;;9.40;99.90;;;;;;4879269;29;20044;-74
2023/12/21 12:11:41;;;;;;;0.70;0.20;;;9.40;99.90;;;;;;4888048;29;20033;-73
2023/12/21 12:14:08;;;;;;;0.10;0.00;;;9.40;99.90;;;;;;4888232;29;20037;-74
2023/12/21 12:16:34;;;;;;;0.43;0.10;;;9.40;99.90;;;;;;4888217;29;20044;-73
2023/12/21 12:19:00;;;;;;;1.08;0.20;;;9.40;99.90;;;;;;4887087;29;20037;-73
2023/12/21 12:21:26;;;;;;;0.20;0.00;;;9.50;99.90;;;;;;4888312;29;20084;-74
2023/12/21 12:23:53;;;;;;;0.40;0.10;;;9.50;99.90;;;;;;4883129;29;20307;-74
2023/12/21 12:26:19;;;;;;;0.43;0.10;;;9.60;99.90;;;;;;4888093;29;20041;-73
2023/12/21 12:28:47;;;;;;;0.17;0.10;;;9.60;99.90;;;;;;4887699;29;20330;-74
2023/12/21 12:31:13;;;;;;;0.20;0.10;;;9.60;99.90;;;;;;4883543;29;20041;-74
2023/12/21 12:33:39;;;;;;;0.85;0.10;;;9.60;99.90;;;;;;4885794;29;20039;-74
2023/12/21 12:36:07;;;;;;;0.28;0.10;;;9.60;99.90;;;;;;4888253;29;20088;-75
2023/12/21 12:38:35;;;;;;;0.52;0.10;;;9.60;99.90;;;;;;4888084;29;20056;-75
2023/12/21 12:41:02;;;;;;;0.30;0.10;;;9.60;99.90;;;;;;4887364;29;20044;-73
2023/12/21 12:43:34;;;;;;;1.02;0.10;;;9.60;99.90;;;;;;4888019;29;20040;-73
2023/12/21 12:46:00;;;;;;;0.20;0.10;;;9.60;99.90;;;;;;4887325;29;20509;-73
2023/12/21 12:48:26;;;;;;;0.40;0.10;;;9.50;99.90;;;;;;4879482;29;20041;-72
2023/12/21 12:50:55;;;;;;;0.10;0.00;;;9.60;99.90;;;;;;4882903;29;20040;-73
2023/12/21 12:53:21;;;;;;;0.20;0.10;;;9.60;99.90;;;;;;4887555;29;20408;-74
2023/12/21 12:55:50;;;;;;;0.88;0.10;;;9.60;99.90;;;;;;4886889;29;20034;-73